createdAt,value
2019-04-03T00:00:49.196Z,14.77
2019-04-03T00:03:15.087Z,13.57
2019-04-03T00:05:40.873Z,13.70
2019-04-03T00:08:07.098Z,14.27
2019-04-03T00:10:33.061Z,14.47
2019-04-03T00:12:58.867Z,14.53
2019-04-03T00:15:24.656Z,14.23
2019-04-03T00:17:50.453Z,14.07
2019-04-03T00:20:18.028Z,14.90
2019-04-03T00:22:46.091Z,14.93
2019-04-03T00:25:14.573Z,15.60
2019-04-03T00:27:40.362Z,14.80
2019-04-03T00:30:07.049Z,15.13
2019-04-03T00:32:32.847Z,16.07
2019-04-03T00:34:58.666Z,16.03
2019-04-03T00:37:24.458Z,16.47
2019-04-03T00:39:50.248Z,15.50
2019-04-03T00:42:16.065Z,16.43
2019-04-03T00:44:41.991Z,16.07
2019-04-03T00:47:07.737Z,15.30
2019-04-03T00:49:33.540Z,15.37
2019-04-03T00:51:59.322Z,16.83
2019-04-03T00:54:26.415Z,16.03
2019-04-03T00:56:52.627Z,16.20
2019-04-03T00:59:18.535Z,16.57
2019-04-03T01:01:44.337Z,16.13
2019-04-03T01:04:10.125Z,16.93
2019-04-03T01:06:35.908Z,17.20
2019-04-03T01:09:01.806Z,16.50
2019-04-03T01:11:28.825Z,16.80
2019-04-03T01:13:55.302Z,16.00
2019-04-03T01:16:21.079Z,16.57
2019-04-03T01:18:46.894Z,17.60
2019-04-03T01:21:12.670Z,16.57
2019-04-03T01:23:38.468Z,17.57
2019-04-03T01:26:04.248Z,17.10
2019-04-03T01:28:30.044Z,17.00
2019-04-03T01:30:55.840Z,17.23
2019-04-03T01:33:21.627Z,18.30
2019-04-03T01:35:47.938Z,17.10
2019-04-03T01:38:13.832Z,17.53
2019-04-03T01:40:39.626Z,16.73
2019-04-03T01:43:05.570Z,17.87
2019-04-03T01:45:31.328Z,17.70
2019-04-03T01:47:58.251Z,18.47
2019-04-03T01:50:24.552Z,17.67
2019-04-03T01:52:50.321Z,17.53
2019-04-03T01:55:16.117Z,17.43
2019-04-03T01:57:41.903Z,17.67
2019-04-03T02:00:08.240Z,18.50
2019-04-03T02:02:34.195Z,17.70
2019-04-03T02:05:00.000Z,18.30
2019-04-03T02:07:25.791Z,18.53
2019-04-03T02:09:51.581Z,19.90
2019-04-03T02:12:17.960Z,19.00
2019-04-03T02:14:45.069Z,19.37
2019-04-03T02:17:10.970Z,19.03
2019-04-03T02:19:36.881Z,19.67
2019-04-03T02:22:02.685Z,17.97
2019-04-03T02:24:31.069Z,18.13
2019-04-03T02:26:56.298Z,19.33
2019-04-03T02:29:22.157Z,18.50
2019-04-03T02:31:51.674Z,18.90
2019-04-03T02:34:15.756Z,20.53
2019-04-03T02:36:44.335Z,18.60
2019-04-03T02:39:09.460Z,19.57
2019-04-03T02:41:38.072Z,19.67
2019-04-03T02:44:04.129Z,20.60
2019-04-03T02:46:30.109Z,19.30
2019-04-03T02:48:55.951Z,20.07
2019-04-03T02:51:21.853Z,20.53
2019-04-03T02:53:47.767Z,20.80
2019-04-03T02:56:13.995Z,19.87
2019-04-03T02:58:40.249Z,21.03
2019-04-03T03:01:07.321Z,20.33
2019-04-03T03:03:33.642Z,21.13
2019-04-03T03:06:01.063Z,21.33
2019-04-03T03:08:27.334Z,21.20
2019-04-03T03:10:53.576Z,20.07
2019-04-03T03:13:20.046Z,20.37
2019-04-03T03:15:45.945Z,21.63
2019-04-03T03:18:11.865Z,21.20
2019-04-03T03:20:40.658Z,21.50
2019-04-03T03:23:06.869Z,20.57
2019-04-03T03:25:33.851Z,21.60
2019-04-03T03:28:00.825Z,20.20
2019-04-03T03:30:38.872Z,21.70
2019-04-03T03:33:22.308Z,21.10
2019-04-03T03:35:30.672Z,22.17
2019-04-03T03:37:53.060Z,21.50
2019-04-03T03:40:19.475Z,21.43
2019-04-03T03:42:46.168Z,22.00
2019-04-03T03:45:12.327Z,21.67
2019-04-03T03:47:38.378Z,21.90
2019-04-03T03:50:06.265Z,21.57
2019-04-03T03:52:36.788Z,22.17
2019-04-03T03:55:03.285Z,22.73
2019-04-03T03:57:29.408Z,22.13
2019-04-03T03:59:55.320Z,23.47
2019-04-03T04:02:21.594Z,22.93
2019-04-03T04:04:53.691Z,22.33
2019-04-03T04:07:19.539Z,24.00
2019-04-03T04:09:49.693Z,23.07
2019-04-03T04:12:13.023Z,22.17
2019-04-03T04:14:39.302Z,23.00
2019-04-03T04:17:08.664Z,22.87
2019-04-03T04:19:34.035Z,23.47
2019-04-03T04:21:59.995Z,23.43
2019-04-03T04:24:27.731Z,21.87
2019-04-03T04:26:53.849Z,22.43
2019-04-03T04:29:20.005Z,23.27
2019-04-03T04:31:45.895Z,23.47
2019-04-03T04:34:11.899Z,23.50
2019-04-03T04:36:37.884Z,24.70
2019-04-03T04:39:06.982Z,23.30
2019-04-03T04:41:33.158Z,23.40
2019-04-03T04:43:59.312Z,23.17
2019-04-03T04:46:25.159Z,24.43
2019-04-03T04:48:51.729Z,24.73
2019-04-03T04:51:18.366Z,23.67
2019-04-03T04:53:44.715Z,23.70
2019-04-03T04:56:10.814Z,23.80
2019-04-03T04:58:36.631Z,24.37
2019-04-03T05:01:02.636Z,23.47
2019-04-03T05:03:28.552Z,23.97
2019-04-03T05:05:57.249Z,23.83
2019-04-03T05:08:22.070Z,23.67
2019-04-03T05:10:49.084Z,22.73
2019-04-03T05:13:16.330Z,23.97
2019-04-03T05:15:42.757Z,22.93
2019-04-03T05:18:10.579Z,22.37
2019-04-03T05:20:36.382Z,24.10
2019-04-03T05:23:02.163Z,22.60
2019-04-03T05:25:29.848Z,22.57
2019-04-03T05:27:55.661Z,23.63
2019-04-03T05:30:28.546Z,22.97
2019-04-03T05:32:54.467Z,23.43
2019-04-03T05:35:20.247Z,22.77
2019-04-03T05:37:46.066Z,24.67
2019-04-03T05:40:11.850Z,24.87
2019-04-03T05:42:37.642Z,23.27
2019-04-03T05:45:05.239Z,25.03
2019-04-03T05:47:31.046Z,24.07
2019-04-03T05:49:56.838Z,24.17
2019-04-03T05:52:22.648Z,25.17
2019-04-03T05:54:48.419Z,25.30
2019-04-03T05:57:14.498Z,25.60
2019-04-03T05:59:43.313Z,23.83
2019-04-03T06:02:14.621Z,24.63
2019-04-03T06:04:35.964Z,24.60
2019-04-03T06:07:01.832Z,24.47
2019-04-03T06:09:27.653Z,24.40
2019-04-03T06:11:53.410Z,23.83
2019-04-03T06:14:19.811Z,25.37
2019-04-03T06:16:47.202Z,24.63
2019-04-03T06:19:13.035Z,25.27
2019-04-03T06:21:38.821Z,24.87
2019-04-03T06:24:04.616Z,23.23
2019-04-03T06:26:30.401Z,23.20
2019-04-03T06:28:56.206Z,23.83
2019-04-03T06:31:22.211Z,24.43
2019-04-03T06:33:50.917Z,24.97
2019-04-03T06:36:17.528Z,24.10
2019-04-03T06:38:43.403Z,24.13
2019-04-03T06:41:09.579Z,24.53
2019-04-03T06:43:35.394Z,24.83
2019-04-03T06:46:01.458Z,23.60
2019-04-03T06:48:27.434Z,24.63
2019-04-03T06:50:53.159Z,23.73
2019-04-03T06:53:18.965Z,23.63
2019-04-03T06:55:44.749Z,24.43
2019-04-03T06:58:11.620Z,23.77
2019-04-03T07:00:38.156Z,23.73
2019-04-03T07:03:04.517Z,23.53
2019-04-03T07:05:30.449Z,24.47
2019-04-03T07:07:56.307Z,23.93
2019-04-03T07:10:25.631Z,23.27
2019-04-03T07:12:49.889Z,23.47
2019-04-03T07:15:15.690Z,23.10
2019-04-03T07:17:41.471Z,23.40
2019-04-03T07:20:14.163Z,23.63
2019-04-03T07:22:36.260Z,23.33
2019-04-03T07:25:04.202Z,22.73
2019-04-03T07:27:29.981Z,23.13
2019-04-03T07:29:55.977Z,23.07
2019-04-03T07:32:21.771Z,22.47
2019-04-03T07:34:47.658Z,23.00
2019-04-03T07:37:15.349Z,23.00
2019-04-03T07:39:41.187Z,22.57
2019-04-03T07:42:06.981Z,21.47
2019-04-03T07:44:32.814Z,22.07
2019-04-03T07:46:58.566Z,21.17
2019-04-03T07:49:24.619Z,21.30
2019-04-03T07:51:50.500Z,22.60
2019-04-03T07:54:16.292Z,20.93
2019-04-03T07:56:42.108Z,20.97
2019-04-03T07:59:08.077Z,20.70
2019-04-03T08:01:34.185Z,22.10
2019-04-03T08:04:00.002Z,21.97
2019-04-03T08:06:25.891Z,22.03
2019-04-03T08:09:05.609Z,23.00
2019-04-03T08:11:19.390Z,22.13
2019-04-03T08:13:45.429Z,22.17
2019-04-03T08:16:11.272Z,22.17
2019-04-03T08:18:37.058Z,22.90
2019-04-03T08:21:02.863Z,21.30
2019-04-03T08:23:28.651Z,21.47
2019-04-03T08:25:54.931Z,22.47
2019-04-03T08:28:21.177Z,21.03
2019-04-03T08:30:47.015Z,21.73
2019-04-03T08:33:17.452Z,20.80
2019-04-03T08:35:40.718Z,21.00
2019-04-03T08:38:06.499Z,21.43
2019-04-03T08:40:32.492Z,20.97
2019-04-03T08:43:00.390Z,21.90
2019-04-03T08:45:26.050Z,20.63
2019-04-03T08:47:51.880Z,20.70
2019-04-03T08:50:17.731Z,20.10
2019-04-03T08:52:43.573Z,20.37
2019-04-03T08:55:12.806Z,19.73
2019-04-03T08:57:37.151Z,19.67
2019-04-03T09:00:05.758Z,19.07
2019-04-03T09:02:31.800Z,18.47
2019-04-03T09:04:57.926Z,19.00
2019-04-03T09:07:24.935Z,18.40
2019-04-03T09:09:51.411Z,18.27
2019-04-03T09:12:17.198Z,19.23
2019-04-03T09:14:43.028Z,19.50
2019-04-03T09:17:08.798Z,18.30
2019-04-03T09:19:34.581Z,19.00
2019-04-03T09:22:00.372Z,18.30
2019-04-03T09:24:29.064Z,19.57
2019-04-03T09:26:54.243Z,19.40
2019-04-03T09:29:20.158Z,19.27
2019-04-03T09:31:46.222Z,18.73
2019-04-03T09:34:12.204Z,18.27
2019-04-03T09:36:38.058Z,19.90
2019-04-03T09:39:07.763Z,19.00
2019-04-03T09:41:33.869Z,19.70
2019-04-03T09:43:59.931Z,18.70
2019-04-03T09:46:25.776Z,19.50
2019-04-03T09:48:51.650Z,19.30
2019-04-03T09:51:18.656Z,19.90
2019-04-03T09:53:45.145Z,19.90
2019-04-03T09:56:11.003Z,19.53
2019-04-03T09:58:36.847Z,18.87
2019-04-03T10:01:02.800Z,18.33
2019-04-03T10:03:30.702Z,18.73
2019-04-03T10:05:56.469Z,18.90
2019-04-03T10:08:22.720Z,19.70
2019-04-03T10:10:48.515Z,19.63
2019-04-03T10:13:14.495Z,19.80
2019-04-03T10:15:40.373Z,18.37
2019-04-03T10:18:06.951Z,20.20
2019-04-03T10:20:33.901Z,19.87
2019-04-03T10:22:59.780Z,18.70
2019-04-03T10:25:25.910Z,19.30
2019-04-03T10:27:52.194Z,19.93
2019-04-03T10:30:20.344Z,20.13
2019-04-03T10:32:46.100Z,21.00
2019-04-03T10:35:12.267Z,21.83
2019-04-03T10:37:38.245Z,23.27
2019-04-03T10:40:06.247Z,21.87
2019-04-03T10:42:32.640Z,22.27
2019-04-03T10:44:58.629Z,23.33
2019-04-03T10:47:27.282Z,20.47
2019-04-03T10:49:52.624Z,20.50
2019-04-03T10:52:18.583Z,21.33
2019-04-03T10:54:44.651Z,21.83
2019-04-03T10:57:10.671Z,20.63
2019-04-03T10:59:37.304Z,20.63
2019-04-03T11:02:03.472Z,20.77
2019-04-03T11:04:29.550Z,20.43
2019-04-03T11:06:55.788Z,21.07
2019-04-03T11:09:21.677Z,21.10
2019-04-03T11:11:47.526Z,21.23
2019-04-03T11:14:13.362Z,20.57
2019-04-03T11:16:39.533Z,23.30
2019-04-03T11:19:07.007Z,22.33
2019-04-03T11:21:33.321Z,22.57
2019-04-03T11:23:59.253Z,21.70
2019-04-03T11:26:25.984Z,22.63
2019-04-03T11:28:51.924Z,21.97
2019-04-03T11:31:25.870Z,21.77
2019-04-03T11:33:46.256Z,21.60
2019-04-03T11:36:12.668Z,23.23
2019-04-03T11:38:38.629Z,21.70
2019-04-03T11:41:12.839Z,21.63
2019-04-03T11:43:32.494Z,25.30
2019-04-03T11:45:58.560Z,25.03
2019-04-03T11:48:26.808Z,22.90
2019-04-03T11:50:56.202Z,23.13
2019-04-03T11:53:20.479Z,21.67
2019-04-03T11:55:46.349Z,21.30
2019-04-03T11:58:12.567Z,22.60
2019-04-03T12:00:43.358Z,24.77
2019-04-03T12:03:10.806Z,22.90
2019-04-03T12:05:37.195Z,24.90
2019-04-03T12:08:03.115Z,24.73
2019-04-03T12:10:28.964Z,25.63
2019-04-03T12:12:54.935Z,24.97
2019-04-03T12:15:22.016Z,23.33
2019-04-03T12:17:48.200Z,26.17
2019-04-03T12:20:15.819Z,25.90
2019-04-03T12:22:42.193Z,25.87
2019-04-03T12:25:08.353Z,25.33
2019-04-03T12:27:36.096Z,28.80
2019-04-03T12:30:05.137Z,26.00
2019-04-03T12:32:37.388Z,22.67
2019-04-03T12:34:59.025Z,25.70
2019-04-03T12:37:25.541Z,25.30
2019-04-03T12:39:51.996Z,25.30
2019-04-03T12:42:17.924Z,25.83
2019-04-03T12:44:43.707Z,21.33
2019-04-03T12:47:12.778Z,24.27
2019-04-03T12:49:37.215Z,19.47
2019-04-03T12:52:04.123Z,20.50
2019-04-03T12:54:30.599Z,18.07
2019-04-03T12:56:56.399Z,18.50
2019-04-03T12:59:22.194Z,19.17
2019-04-03T13:01:49.231Z,19.13
2019-04-03T13:04:15.781Z,19.07
2019-04-03T13:06:42.405Z,18.90
2019-04-03T13:09:09.664Z,18.83
2019-04-03T13:11:36.667Z,19.97
2019-04-03T13:14:02.678Z,18.83
2019-04-03T13:16:28.465Z,18.70
2019-04-03T13:18:54.434Z,19.13
2019-04-03T13:21:20.713Z,21.03
2019-04-03T13:23:46.810Z,22.20
2019-04-03T13:26:12.656Z,21.30
2019-04-03T13:28:40.214Z,25.57
2019-04-03T13:31:06.370Z,22.13
2019-04-03T13:33:32.501Z,21.90
2019-04-03T13:35:58.484Z,19.83
2019-04-03T13:38:24.328Z,18.90
2019-04-03T13:40:50.423Z,18.80
2019-04-03T13:43:18.060Z,19.47
2019-04-03T13:45:46.149Z,21.17
2019-04-03T13:48:13.376Z,18.93
2019-04-03T13:50:39.704Z,17.93
2019-04-03T13:53:05.493Z,21.43
2019-04-03T13:55:34.553Z,18.77
2019-04-03T13:57:59.126Z,19.17
2019-04-03T14:00:24.978Z,20.03
2019-04-03T14:02:50.770Z,18.43
2019-04-03T14:05:16.672Z,21.00
2019-04-03T14:07:42.694Z,20.77
2019-04-03T14:10:08.676Z,21.30
2019-04-03T14:12:36.601Z,21.23
2019-04-03T14:15:05.461Z,22.63
2019-04-03T14:17:31.367Z,22.50
2019-04-03T14:19:57.272Z,23.63
2019-04-03T14:22:23.795Z,21.70
2019-04-03T14:24:52.423Z,27.97
2019-04-03T14:27:23.246Z,30.10
2019-04-03T14:29:45.032Z,22.13
2019-04-03T14:32:13.570Z,20.90
2019-04-03T14:34:40.229Z,22.03
2019-04-03T14:37:06.305Z,22.37
2019-04-03T14:39:32.163Z,21.40
2019-04-03T14:41:57.941Z,25.37
2019-04-03T14:44:23.919Z,26.77
2019-04-03T14:46:50.733Z,31.23
2019-04-03T14:49:17.029Z,38.20
2019-04-03T14:51:43.802Z,33.83
2019-04-03T14:54:10.182Z,26.00
2019-04-03T14:56:36.087Z,26.50
2019-04-03T14:59:01.947Z,24.63
2019-04-03T15:01:27.757Z,26.87
2019-04-03T15:03:53.923Z,24.23
2019-04-03T15:06:19.867Z,25.57
2019-04-03T15:08:46.002Z,24.90
2019-04-03T15:11:12.432Z,24.53
2019-04-03T15:13:38.761Z,24.30
2019-04-03T15:16:04.735Z,23.23
2019-04-03T15:18:31.203Z,23.40
2019-04-03T15:20:57.035Z,24.30
2019-04-03T15:23:23.052Z,24.27
2019-04-03T15:25:51.806Z,24.43
2019-04-03T15:28:16.647Z,24.13
2019-04-03T15:30:43.706Z,22.40
2019-04-03T15:33:10.048Z,25.53
2019-04-03T15:35:35.848Z,24.40
2019-04-03T15:38:01.641Z,24.80
2019-04-03T15:40:27.504Z,22.53
2019-04-03T15:42:54.108Z,22.23
2019-04-03T15:45:22.470Z,23.53
2019-04-03T15:47:48.463Z,22.60
2019-04-03T15:50:14.357Z,21.53
2019-04-03T15:52:43.020Z,25.77
2019-04-03T15:55:08.552Z,23.47
2019-04-03T15:57:34.371Z,23.77
2019-04-03T16:00:02.792Z,21.37
2019-04-03T16:02:29.078Z,25.00
2019-04-03T16:04:55.074Z,22.87
2019-04-03T16:07:20.952Z,21.13
2019-04-03T16:09:49.650Z,20.47
2019-04-03T16:12:14.679Z,19.50
2019-04-03T16:14:40.926Z,18.07
2019-04-03T16:17:06.835Z,17.57
2019-04-03T16:19:33.062Z,19.10
2019-04-03T16:21:59.066Z,16.50
2019-04-03T16:24:24.926Z,16.63
2019-04-03T16:26:50.721Z,18.77
2019-04-03T16:29:16.603Z,20.17
2019-04-03T16:31:42.787Z,20.63
2019-04-03T16:34:12.280Z,20.40
2019-04-03T16:36:36.410Z,20.13
2019-04-03T16:39:05.003Z,20.40
2019-04-03T16:41:30.795Z,21.13
2019-04-03T16:43:56.593Z,22.77
2019-04-03T16:46:22.383Z,36.87
2019-04-03T16:48:49.913Z,23.23
2019-04-03T16:51:15.869Z,23.20
2019-04-03T16:53:41.673Z,25.80
2019-04-03T16:56:07.463Z,27.10
2019-04-03T16:58:33.737Z,25.53
2019-04-03T17:00:59.521Z,26.33
2019-04-03T17:03:27.349Z,26.20
2019-04-03T17:05:53.168Z,26.17
2019-04-03T17:08:19.472Z,28.87
2019-04-03T17:10:45.409Z,26.20
2019-04-03T17:13:11.317Z,31.03
2019-04-03T17:15:37.098Z,25.30
2019-04-03T17:18:04.137Z,25.67
2019-04-03T17:20:29.920Z,26.70
2019-04-03T17:22:55.860Z,26.27
2019-04-03T17:25:21.703Z,26.23
2019-04-03T17:27:55.163Z,26.90
2019-04-03T17:30:17.625Z,25.80
2019-04-03T17:32:43.469Z,27.13
2019-04-03T17:35:09.960Z,27.10
2019-04-03T17:37:35.871Z,26.20
2019-04-03T17:40:05.694Z,27.67
2019-04-03T17:42:30.066Z,28.07
2019-04-03T17:44:55.859Z,29.93
2019-04-03T17:47:21.702Z,29.17
2019-04-03T17:49:47.502Z,30.87
2019-04-03T17:52:13.290Z,29.97
2019-04-03T17:54:39.182Z,29.93
2019-04-03T17:57:04.975Z,31.17
2019-04-03T17:59:30.809Z,31.57
2019-04-03T18:01:56.600Z,36.23
2019-04-03T18:04:22.379Z,32.37
2019-04-03T18:06:48.183Z,32.23
2019-04-03T18:09:13.960Z,31.10
2019-04-03T18:11:42.647Z,33.20
2019-04-03T18:14:07.619Z,31.67
2019-04-03T18:16:33.595Z,32.23
2019-04-03T18:18:59.460Z,32.43
2019-04-03T18:21:25.262Z,34.57
2019-04-03T18:23:53.344Z,32.47
2019-04-03T18:26:18.767Z,32.10
2019-04-03T18:28:44.550Z,31.47
2019-04-03T18:31:11.829Z,31.07
2019-04-03T18:33:38.039Z,31.37
2019-04-03T18:36:03.933Z,35.77
2019-04-03T18:38:29.729Z,26.43
2019-04-03T18:40:55.534Z,30.37
2019-04-03T18:43:21.977Z,35.00
2019-04-03T18:45:48.290Z,33.93
2019-04-03T18:48:16.262Z,37.13
2019-04-03T18:50:42.041Z,39.23
2019-04-03T18:53:09.827Z,42.27
2019-04-03T18:55:35.520Z,40.30
2019-04-03T18:58:01.339Z,38.87
2019-04-03T19:00:27.106Z,39.30
2019-04-03T19:02:52.912Z,43.93
2019-04-03T19:05:18.692Z,44.00
2019-04-03T19:07:46.709Z,49.67
2019-04-03T19:10:12.516Z,45.03
2019-04-03T19:12:38.419Z,40.63
2019-04-03T19:15:05.306Z,43.37
2019-04-03T19:17:31.107Z,48.47
2019-04-03T19:20:09.790Z,40.20
2019-04-03T19:22:25.794Z,38.30
2019-04-03T19:24:52.151Z,37.27
2019-04-03T19:27:17.937Z,33.90
2019-04-03T19:29:43.717Z,34.50
2019-04-03T19:32:11.956Z,37.30
2019-04-03T19:34:39.617Z,33.57
2019-04-03T19:37:06.315Z,34.23
2019-04-03T19:39:32.217Z,43.17
2019-04-03T19:41:58.041Z,45.90
2019-04-03T19:44:23.834Z,46.63
2019-04-03T19:46:49.627Z,52.93
2019-04-03T19:49:15.421Z,53.40
2019-04-03T19:51:41.204Z,50.00
2019-04-03T19:54:07.003Z,38.87
2019-04-03T19:56:32.782Z,48.73
2019-04-03T19:58:59.589Z,46.33
2019-04-03T20:01:26.246Z,50.27
2019-04-03T20:03:52.264Z,51.63
2019-04-03T20:06:18.294Z,40.27
2019-04-03T20:08:44.326Z,40.43
2019-04-03T20:11:10.450Z,47.83
2019-04-03T20:13:39.506Z,53.87
2019-04-03T20:16:04.710Z,56.63
2019-04-03T20:18:30.787Z,84.90
2019-04-03T20:20:56.881Z,89.70
2019-04-03T20:23:23.027Z,59.07
2019-04-03T20:25:48.956Z,60.37
2019-04-03T20:28:15.278Z,50.03
2019-04-03T20:30:41.744Z,53.63
2019-04-03T20:33:07.916Z,53.70
2019-04-03T20:35:34.127Z,59.27
2019-04-03T20:38:00.495Z,49.23
2019-04-03T20:40:26.612Z,42.13
2019-04-03T20:42:55.701Z,51.83
2019-04-03T20:45:21.984Z,52.87
2019-04-03T20:47:48.262Z,66.07
2019-04-03T20:50:16.080Z,71.40
2019-04-03T20:52:45.739Z,72.10
2019-04-03T20:55:10.763Z,63.53
2019-04-03T20:57:37.235Z,94.77
2019-04-03T21:00:11.704Z,79.57
2019-04-03T21:02:37.765Z,80.57
2019-04-03T21:05:07.517Z,80.77
2019-04-03T21:07:32.496Z,72.20
2019-04-03T21:10:00.516Z,70.63
2019-04-03T21:12:27.046Z,61.90
2019-04-03T21:14:53.412Z,66.37
2019-04-03T21:17:19.444Z,65.17
2019-04-03T21:19:45.306Z,62.63
2019-04-03T21:22:11.087Z,60.60
2019-04-03T21:24:37.443Z,61.20
2019-04-03T21:27:03.486Z,57.17
2019-04-03T21:29:29.577Z,56.47
2019-04-03T21:31:56.728Z,60.07
2019-04-03T21:34:23.403Z,53.27
2019-04-03T21:36:49.463Z,51.17
2019-04-03T21:39:15.636Z,53.13
2019-04-03T21:41:41.587Z,53.30
2019-04-03T21:44:07.564Z,53.77
2019-04-03T21:46:33.359Z,61.67
2019-04-03T21:48:59.145Z,60.73
2019-04-03T21:51:25.121Z,55.63
2019-04-03T21:53:55.835Z,59.80
2019-04-03T21:56:21.671Z,53.50
2019-04-03T21:58:47.442Z,51.23
2019-04-03T22:01:16.145Z,55.80
2019-04-03T22:03:41.929Z,55.57
2019-04-03T22:06:08.087Z,54.47
2019-04-03T22:08:33.872Z,56.10
2019-04-03T22:10:59.802Z,54.53
2019-04-03T22:13:25.576Z,52.30
2019-04-03T22:15:51.368Z,53.23
2019-04-03T22:18:17.148Z,55.53
2019-04-03T22:20:42.993Z,55.97
2019-04-03T22:23:08.815Z,55.40
2019-04-03T22:25:39.309Z,52.67
2019-04-03T22:28:03.998Z,54.17
2019-04-03T22:30:29.772Z,52.47
2019-04-03T22:32:55.882Z,54.73
2019-04-03T22:35:22.400Z,51.97
2019-04-03T22:37:48.200Z,54.03
2019-04-03T22:40:13.973Z,52.67
2019-04-03T22:42:39.765Z,50.67
2019-04-03T22:45:05.746Z,53.20
2019-04-03T22:47:31.534Z,50.53
2019-04-03T22:49:57.316Z,50.10
2019-04-03T22:52:23.105Z,52.73
2019-04-03T22:54:48.887Z,48.40
2019-04-03T22:57:14.672Z,50.43
2019-04-03T22:59:40.438Z,47.00
2019-04-03T23:02:06.228Z,49.43
2019-04-03T23:04:32.024Z,46.87
2019-04-03T23:06:57.817Z,48.20
2019-04-03T23:09:25.388Z,45.43
2019-04-03T23:11:51.304Z,44.73
2019-04-03T23:14:17.091Z,44.80
2019-04-03T23:16:43.338Z,45.33
2019-04-03T23:19:09.187Z,46.27
2019-04-03T23:21:34.963Z,46.13
2019-04-03T23:24:00.758Z,46.47
2019-04-03T23:26:26.540Z,49.57
2019-04-03T23:28:52.336Z,45.57
2019-04-03T23:31:18.121Z,47.90
2019-04-03T23:33:43.917Z,46.97
2019-04-03T23:36:09.708Z,48.50
2019-04-03T23:38:35.533Z,48.57
2019-04-03T23:41:01.324Z,49.53
2019-04-03T23:43:27.117Z,47.13
2019-04-03T23:45:52.898Z,48.47
2019-04-03T23:48:18.702Z,51.40
2019-04-03T23:50:44.684Z,48.50
2019-04-03T23:53:10.473Z,49.30
2019-04-03T23:55:36.783Z,49.10
2019-04-03T23:58:02.677Z,48.53
